sensor_id;sensor_type;location;lat;lon;timestamp;P1;durP1;ratioP1;P2;durP2;ratioP2
33170;SDS011;19535;50.672;4.206;2024-01-27T00:00:10;3.42;;;1.90;;
33170;SDS011;19535;50.672;4.206;2024-01-27T00:02:37;4.25;;;1.60;;
33170;SDS011;19535;50.672;4.206;2024-01-27T00:05:04;3.13;;;1.65;;
33170;SDS011;19535;50.672;4.206;2024-01-27T00:07:31;2.58;;;1.95;;
33170;SDS011;19535;50.672;4.206;2024-01-27T00:09:58;2.75;;;1.92;;
33170;SDS011;19535;50.672;4.206;2024-01-27T00:12:26;2.85;;;2.13;;
33170;SDS011;19535;50.672;4.206;2024-01-27T00:14:53;3.30;;;2.00;;
33170;SDS011;19535;50.672;4.206;2024-01-27T00:17:20;3.70;;;2.17;;
33170;SDS011;19535;50.672;4.206;2024-01-27T00:19:53;2.30;;;1.90;;
33170;SDS011;19535;50.672;4.206;2024-01-27T00:22:20;4.68;;;1.70;;
33170;SDS011;19535;50.672;4.206;2024-01-27T00:24:47;3.05;;;1.75;;
33170;SDS011;19535;50.672;4.206;2024-01-27T00:27:14;3.85;;;2.35;;
33170;SDS011;19535;50.672;4.206;2024-01-27T00:29:42;3.83;;;2.50;;
33170;SDS011;19535;50.672;4.206;2024-01-27T00:32:09;2.42;;;1.60;;
33170;SDS011;19535;50.672;4.206;2024-01-27T00:34:36;3.28;;;1.83;;
33170;SDS011;19535;50.672;4.206;2024-01-27T00:37:03;3.28;;;1.98;;
33170;SDS011;19535;50.672;4.206;2024-01-27T00:39:31;3.25;;;2.13;;
33170;SDS011;19535;50.672;4.206;2024-01-27T00:41:59;2.03;;;1.83;;
33170;SDS011;19535;50.672;4.206;2024-01-27T00:44:26;3.65;;;1.90;;
33170;SDS011;19535;50.672;4.206;2024-01-27T00:46:53;3.65;;;1.80;;
33170;SDS011;19535;50.672;4.206;2024-01-27T00:49:20;2.50;;;1.75;;
33170;SDS011;19535;50.672;4.206;2024-01-27T00:51:47;3.10;;;1.58;;
33170;SDS011;19535;50.672;4.206;2024-01-27T00:54:14;4.15;;;2.08;;
33170;SDS011;19535;50.672;4.206;2024-01-27T00:56:41;3.45;;;2.10;;
33170;SDS011;19535;50.672;4.206;2024-01-27T00:59:08;3.58;;;2.25;;
33170;SDS011;19535;50.672;4.206;2024-01-27T01:01:35;3.58;;;1.73;;
33170;SDS011;19535;50.672;4.206;2024-01-27T01:04:02;3.45;;;2.00;;
33170;SDS011;19535;50.672;4.206;2024-01-27T01:06:29;2.00;;;1.70;;
33170;SDS011;19535;50.672;4.206;2024-01-27T01:08:57;3.33;;;2.38;;
33170;SDS011;19535;50.672;4.206;2024-01-27T01:11:24;3.00;;;2.17;;
33170;SDS011;19535;50.672;4.206;2024-01-27T01:13:50;3.10;;;2.03;;
33170;SDS011;19535;50.672;4.206;2024-01-27T01:16:17;4.00;;;2.00;;
33170;SDS011;19535;50.672;4.206;2024-01-27T01:18:44;2.25;;;1.60;;
33170;SDS011;19535;50.672;4.206;2024-01-27T01:21:11;3.45;;;2.08;;
33170;SDS011;19535;50.672;4.206;2024-01-27T01:23:38;3.53;;;2.20;;
33170;SDS011;19535;50.672;4.206;2024-01-27T01:26:05;4.72;;;2.45;;
33170;SDS011;19535;50.672;4.206;2024-01-27T01:28:32;2.80;;;1.88;;
33170;SDS011;19535;50.672;4.206;2024-01-27T01:30:59;3.00;;;2.20;;
33170;SDS011;19535;50.672;4.206;2024-01-27T01:33:26;2.78;;;1.85;;
33170;SDS011;19535;50.672;4.206;2024-01-27T01:35:53;2.60;;;1.90;;
33170;SDS011;19535;50.672;4.206;2024-01-27T01:38:20;2.60;;;1.92;;
33170;SDS011;19535;50.672;4.206;2024-01-27T01:40:47;3.60;;;2.40;;
33170;SDS011;19535;50.672;4.206;2024-01-27T01:43:14;3.70;;;2.38;;
33170;SDS011;19535;50.672;4.206;2024-01-27T01:45:41;3.42;;;2.05;;
33170;SDS011;19535;50.672;4.206;2024-01-27T01:48:08;4.55;;;2.17;;
33170;SDS011;19535;50.672;4.206;2024-01-27T01:50:36;3.38;;;1.83;;
33170;SDS011;19535;50.672;4.206;2024-01-27T01:53:03;3.05;;;2.33;;
33170;SDS011;19535;50.672;4.206;2024-01-27T01:55:30;3.00;;;2.10;;
33170;SDS011;19535;50.672;4.206;2024-01-27T01:57:57;2.78;;;2.00;;
33170;SDS011;19535;50.672;4.206;2024-01-27T02:00:24;3.25;;;2.20;;
33170;SDS011;19535;50.672;4.206;2024-01-27T04:50:10;3.72;;;2.75;;
33170;SDS011;19535;50.672;4.206;2024-01-27T04:52:37;3.67;;;2.50;;
33170;SDS011;19535;50.672;4.206;2024-01-27T04:55:05;4.45;;;2.90;;
33170;SDS011;19535;50.672;4.206;2024-01-27T04:57:32;4.03;;;2.50;;
33170;SDS011;19535;50.672;4.206;2024-01-27T05:00:00;4.00;;;3.00;;
33170;SDS011;19535;50.672;4.206;2024-01-27T05:02:27;3.92;;;2.70;;
33170;SDS011;19535;50.672;4.206;2024-01-27T05:04:54;3.90;;;2.72;;
33170;SDS011;19535;50.672;4.206;2024-01-27T05:07:21;3.85;;;2.60;;
33170;SDS011;19535;50.672;4.206;2024-01-27T05:09:48;3.40;;;2.75;;
33170;SDS011;19535;50.672;4.206;2024-01-27T05:12:15;3.63;;;2.40;;
33170;SDS011;19535;50.672;4.206;2024-01-27T05:14:45;4.10;;;2.58;;
33170;SDS011;19535;50.672;4.206;2024-01-27T05:17:12;3.70;;;2.58;;
33170;SDS011;19535;50.672;4.206;2024-01-27T05:19:39;3.60;;;2.67;;
33170;SDS011;19535;50.672;4.206;2024-01-27T05:22:06;3.15;;;2.33;;
33170;SDS011;19535;50.672;4.206;2024-01-27T05:24:33;2.75;;;2.53;;
33170;SDS011;19535;50.672;4.206;2024-01-27T05:27:00;3.30;;;2.63;;
33170;SDS011;19535;50.672;4.206;2024-01-27T05:29:27;3.63;;;2.58;;
33170;SDS011;19535;50.672;4.206;2024-01-27T05:31:55;3.38;;;2.50;;
33170;SDS011;19535;50.672;4.206;2024-01-27T05:34:22;2.97;;;2.35;;
33170;SDS011;19535;50.672;4.206;2024-01-27T05:36:49;3.75;;;2.55;;
33170;SDS011;19535;50.672;4.206;2024-01-27T05:39:16;2.92;;;2.58;;
33170;SDS011;19535;50.672;4.206;2024-01-27T05:41:43;2.92;;;2.50;;
33170;SDS011;19535;50.672;4.206;2024-01-27T05:44:10;2.80;;;2.42;;
33170;SDS011;19535;50.672;4.206;2024-01-27T05:46:37;3.60;;;2.65;;
33170;SDS011;19535;50.672;4.206;2024-01-27T05:49:04;2.92;;;2.25;;
33170;SDS011;19535;50.672;4.206;2024-01-27T05:51:32;2.72;;;2.42;;
33170;SDS011;19535;50.672;4.206;2024-01-27T05:54:00;3.25;;;2.50;;
33170;SDS011;19535;50.672;4.206;2024-01-27T05:56:27;2.35;;;2.00;;
33170;SDS011;19535;50.672;4.206;2024-01-27T05:58:54;2.75;;;2.35;;
33170;SDS011;19535;50.672;4.206;2024-01-27T06:01:21;2.83;;;2.25;;
33170;SDS011;19535;50.672;4.206;2024-01-27T06:03:48;2.40;;;2.15;;
33170;SDS011;19535;50.672;4.206;2024-01-27T06:06:15;2.53;;;2.33;;
33170;SDS011;19535;50.672;4.206;2024-01-27T06:08:42;2.97;;;2.42;;
33170;SDS011;19535;50.672;4.206;2024-01-27T06:11:09;2.53;;;2.20;;
33170;SDS011;19535;50.672;4.206;2024-01-27T06:13:36;3.95;;;2.40;;
33170;SDS011;19535;50.672;4.206;2024-01-27T06:16:07;2.50;;;2.13;;
33170;SDS011;19535;50.672;4.206;2024-01-27T06:18:38;2.67;;;2.38;;
33170;SDS011;19535;50.672;4.206;2024-01-27T06:21:06;2.90;;;2.28;;
33170;SDS011;19535;50.672;4.206;2024-01-27T06:23:33;2.80;;;2.38;;
33170;SDS011;19535;50.672;4.206;2024-01-27T06:26:04;2.85;;;2.38;;
33170;SDS011;19535;50.672;4.206;2024-01-27T06:28:35;3.25;;;2.30;;
33170;SDS011;19535;50.672;4.206;2024-01-27T06:31:03;2.45;;;2.03;;
33170;SDS011;19535;50.672;4.206;2024-01-27T06:33:30;2.45;;;2.10;;
33170;SDS011;19535;50.672;4.206;2024-01-27T06:35:58;4.07;;;2.53;;
33170;SDS011;19535;50.672;4.206;2024-01-27T06:38:26;2.90;;;2.05;;
33170;SDS011;19535;50.672;4.206;2024-01-27T06:40:53;2.47;;;2.28;;
33170;SDS011;19535;50.672;4.206;2024-01-27T06:43:20;2.30;;;2.10;;
33170;SDS011;19535;50.672;4.206;2024-01-27T06:45:47;3.25;;;2.47;;
33170;SDS011;19535;50.672;4.206;2024-01-27T06:48:14;2.78;;;2.05;;
33170;SDS011;19535;50.672;4.206;2024-01-27T06:50:42;2.30;;;2.10;;
33170;SDS011;19535;50.672;4.206;2024-01-27T06:53:09;3.05;;;2.05;;
33170;SDS011;19535;50.672;4.206;2024-01-27T06:55:37;3.50;;;2.30;;
33170;SDS011;19535;50.672;4.206;2024-01-27T06:58:09;2.38;;;2.17;;
33170;SDS011;19535;50.672;4.206;2024-01-27T07:00:38;2.63;;;2.25;;
33170;SDS011;19535;50.672;4.206;2024-01-27T07:03:07;2.37;;;2.17;;
33170;SDS011;19535;50.672;4.206;2024-01-27T07:05:39;2.40;;;2.15;;
33170;SDS011;19535;50.672;4.206;2024-01-27T07:08:07;2.80;;;2.33;;
33170;SDS011;19535;50.672;4.206;2024-01-27T07:10:37;2.53;;;2.33;;
33170;SDS011;19535;50.672;4.206;2024-01-27T07:13:05;3.03;;;2.45;;
33170;SDS011;19535;50.672;4.206;2024-01-27T07:15:32;3.33;;;2.30;;
33170;SDS011;19535;50.672;4.206;2024-01-27T07:18:00;3.45;;;2.60;;
33170;SDS011;19535;50.672;4.206;2024-01-27T07:20:27;2.65;;;2.17;;
33170;SDS011;19535;50.672;4.206;2024-01-27T07:22:55;2.63;;;2.10;;
33170;SDS011;19535;50.672;4.206;2024-01-27T07:25:22;2.90;;;2.15;;
33170;SDS011;19535;50.672;4.206;2024-01-27T07:27:49;2.58;;;2.13;;
33170;SDS011;19535;50.672;4.206;2024-01-27T07:30:27;2.67;;;2.47;;
33170;SDS011;19535;50.672;4.206;2024-01-27T07:32:57;2.40;;;2.05;;
33170;SDS011;19535;50.672;4.206;2024-01-27T07:35:24;3.20;;;2.42;;
33170;SDS011;19535;50.672;4.206;2024-01-27T07:37:54;3.22;;;2.42;;
33170;SDS011;19535;50.672;4.206;2024-01-27T07:40:21;3.47;;;2.33;;
33170;SDS011;19535;50.672;4.206;2024-01-27T07:42:48;3.47;;;2.22;;
33170;SDS011;19535;50.672;4.206;2024-01-27T07:45:15;3.03;;;2.35;;
33170;SDS011;19535;50.672;4.206;2024-01-27T07:47:42;2.55;;;2.20;;
33170;SDS011;19535;50.672;4.206;2024-01-27T07:50:09;3.33;;;2.45;;
33170;SDS011;19535;50.672;4.206;2024-01-27T07:52:37;2.45;;;2.22;;
33170;SDS011;19535;50.672;4.206;2024-01-27T07:55:07;2.10;;;1.70;;
33170;SDS011;19535;50.672;4.206;2024-01-27T07:57:34;2.33;;;2.10;;
33170;SDS011;19535;50.672;4.206;2024-01-27T08:00:02;4.43;;;2.22;;
33170;SDS011;19535;50.672;4.206;2024-01-27T08:02:29;2.42;;;1.92;;
33170;SDS011;19535;50.672;4.206;2024-01-27T08:04:56;3.47;;;2.28;;
33170;SDS011;19535;50.672;4.206;2024-01-27T08:07:24;3.05;;;2.03;;
33170;SDS011;19535;50.672;4.206;2024-01-27T08:09:51;2.30;;;2.10;;
33170;SDS011;19535;50.672;4.206;2024-01-27T08:14:49;2.25;;;2.05;;
33170;SDS011;19535;50.672;4.206;2024-01-27T08:17:16;2.63;;;2.00;;
33170;SDS011;19535;50.672;4.206;2024-01-27T08:19:46;2.83;;;1.90;;
33170;SDS011;19535;50.672;4.206;2024-01-27T08:24:40;2.38;;;1.95;;
33170;SDS011;19535;50.672;4.206;2024-01-27T08:27:07;4.22;;;2.22;;
33170;SDS011;19535;50.672;4.206;2024-01-27T08:29:34;3.58;;;2.20;;
33170;SDS011;19535;50.672;4.206;2024-01-27T08:32:01;2.83;;;1.95;;
33170;SDS011;19535;50.672;4.206;2024-01-27T08:34:29;3.05;;;2.30;;
33170;SDS011;19535;50.672;4.206;2024-01-27T08:37:00;3.03;;;2.25;;
33170;SDS011;19535;50.672;4.206;2024-01-27T08:39:27;2.90;;;2.15;;
33170;SDS011;19535;50.672;4.206;2024-01-27T08:44:36;3.10;;;2.20;;
33170;SDS011;19535;50.672;4.206;2024-01-27T08:47:23;3.38;;;2.33;;
33170;SDS011;19535;50.672;4.206;2024-01-27T08:50:10;2.13;;;1.92;;
33170;SDS011;19535;50.672;4.206;2024-01-27T08:52:58;2.80;;;2.28;;
33170;SDS011;19535;50.672;4.206;2024-01-27T08:55:45;3.70;;;2.20;;
33170;SDS011;19535;50.672;4.206;2024-01-27T08:58:32;2.72;;;2.15;;
33170;SDS011;19535;50.672;4.206;2024-01-27T09:01:19;3.63;;;2.22;;
33170;SDS011;19535;50.672;4.206;2024-01-27T09:04:06;2.58;;;2.03;;
33170;SDS011;19535;50.672;4.206;2024-01-27T09:06:54;2.35;;;2.03;;
33170;SDS011;19535;50.672;4.206;2024-01-27T09:09:41;2.90;;;1.80;;
33170;SDS011;19535;50.672;4.206;2024-01-27T09:12:29;2.35;;;2.10;;
33170;SDS011;19535;50.672;4.206;2024-01-27T09:15:16;2.63;;;2.10;;
33170;SDS011;19535;50.672;4.206;2024-01-27T09:18:03;2.35;;;2.15;;
33170;SDS011;19535;50.672;4.206;2024-01-27T09:20:52;2.67;;;2.03;;
33170;SDS011;19535;50.672;4.206;2024-01-27T09:23:39;2.85;;;1.92;;
33170;SDS011;19535;50.672;4.206;2024-01-27T09:26:26;2.78;;;2.20;;
33170;SDS011;19535;50.672;4.206;2024-01-27T09:29:13;2.58;;;2.13;;
33170;SDS011;19535;50.672;4.206;2024-01-27T09:32:01;2.92;;;2.05;;
33170;SDS011;19535;50.672;4.206;2024-01-27T09:34:48;3.25;;;2.28;;
33170;SDS011;19535;50.672;4.206;2024-01-27T09:37:36;3.00;;;2.25;;
33170;SDS011;19535;50.672;4.206;2024-01-27T09:40:23;3.28;;;1.70;;
33170;SDS011;19535;50.672;4.206;2024-01-27T09:43:11;3.92;;;1.95;;
33170;SDS011;19535;50.672;4.206;2024-01-27T09:46:00;2.40;;;2.05;;
33170;SDS011;19535;50.672;4.206;2024-01-27T09:48:49;5.63;;;2.05;;
33170;SDS011;19535;50.672;4.206;2024-01-27T09:51:36;3.92;;;2.00;;
33170;SDS011;19535;50.672;4.206;2024-01-27T09:54:23;2.92;;;2.25;;
33170;SDS011;19535;50.672;4.206;2024-01-27T09:57:11;3.60;;;2.15;;
33170;SDS011;19535;50.672;4.206;2024-01-27T09:59:59;4.50;;;2.00;;
33170;SDS011;19535;50.672;4.206;2024-01-27T10:02:47;3.58;;;1.90;;
33170;SDS011;19535;50.672;4.206;2024-01-27T10:05:34;4.88;;;2.05;;
33170;SDS011;19535;50.672;4.206;2024-01-27T10:08:23;2.22;;;2.00;;
33170;SDS011;19535;50.672;4.206;2024-01-27T10:11:10;2.13;;;1.80;;
33170;SDS011;19535;50.672;4.206;2024-01-27T10:14:00;5.10;;;2.10;;
33170;SDS011;19535;50.672;4.206;2024-01-27T10:16:48;3.67;;;2.20;;
33170;SDS011;19535;50.672;4.206;2024-01-27T10:19:35;7.68;;;2.50;;
33170;SDS011;19535;50.672;4.206;2024-01-27T10:22:26;4.15;;;2.20;;
33170;SDS011;19535;50.672;4.206;2024-01-27T10:25:26;3.42;;;2.22;;
33170;SDS011;19535;50.672;4.206;2024-01-27T10:28:13;3.63;;;2.00;;
33170;SDS011;19535;50.672;4.206;2024-01-27T10:31:10;3.38;;;1.77;;
33170;SDS011;19535;50.672;4.206;2024-01-27T10:33:58;3.25;;;1.88;;
33170;SDS011;19535;50.672;4.206;2024-01-27T10:36:46;3.40;;;1.60;;
33170;SDS011;19535;50.672;4.206;2024-01-27T10:39:33;5.25;;;1.90;;
33170;SDS011;19535;50.672;4.206;2024-01-27T10:42:20;2.47;;;1.77;;
33170;SDS011;19535;50.672;4.206;2024-01-27T10:45:07;4.82;;;1.80;;
33170;SDS011;19535;50.672;4.206;2024-01-27T10:47:56;7.45;;;2.20;;
33170;SDS011;19535;50.672;4.206;2024-01-27T10:50:44;5.05;;;1.73;;
33170;SDS011;19535;50.672;4.206;2024-01-27T10:53:32;5.43;;;1.60;;
33170;SDS011;19535;50.672;4.206;2024-01-27T10:56:22;3.05;;;2.00;;
33170;SDS011;19535;50.672;4.206;2024-01-27T10:59:09;3.40;;;1.90;;
33170;SDS011;19535;50.672;4.206;2024-01-27T11:01:58;2.97;;;1.60;;
33170;SDS011;19535;50.672;4.206;2024-01-27T11:04:46;2.28;;;1.58;;
33170;SDS011;19535;50.672;4.206;2024-01-27T11:07:35;3.50;;;1.80;;
33170;SDS011;19535;50.672;4.206;2024-01-27T11:10:22;3.85;;;1.95;;
33170;SDS011;19535;50.672;4.206;2024-01-27T11:13:10;3.13;;;1.90;;
33170;SDS011;19535;50.672;4.206;2024-01-27T11:15:57;2.63;;;1.60;;
33170;SDS011;19535;50.672;4.206;2024-01-27T11:18:45;3.97;;;1.83;;
33170;SDS011;19535;50.672;4.206;2024-01-27T11:21:32;2.25;;;1.70;;
33170;SDS011;19535;50.672;4.206;2024-01-27T11:24:23;3.75;;;1.50;;
33170;SDS011;19535;50.672;4.206;2024-01-27T11:27:10;3.05;;;1.52;;
33170;SDS011;19535;50.672;4.206;2024-01-27T11:30:00;4.75;;;1.83;;
33170;SDS011;19535;50.672;4.206;2024-01-27T11:32:48;3.10;;;1.67;;
33170;SDS011;19535;50.672;4.206;2024-01-27T11:35:35;3.72;;;1.85;;
33170;SDS011;19535;50.672;4.206;2024-01-27T11:38:23;6.90;;;1.85;;
33170;SDS011;19535;50.672;4.206;2024-01-27T11:41:10;4.15;;;1.85;;
33170;SDS011;19535;50.672;4.206;2024-01-27T11:43:57;8.93;;;2.20;;
33170;SDS011;19535;50.672;4.206;2024-01-27T11:46:48;5.18;;;1.92;;
33170;SDS011;19535;50.672;4.206;2024-01-27T11:49:36;5.43;;;2.28;;
33170;SDS011;19535;50.672;4.206;2024-01-27T11:52:24;4.32;;;1.80;;
33170;SDS011;19535;50.672;4.206;2024-01-27T11:55:11;6.70;;;2.10;;
33170;SDS011;19535;50.672;4.206;2024-01-27T11:57:59;4.97;;;2.03;;
33170;SDS011;19535;50.672;4.206;2024-01-27T12:00:46;2.65;;;1.58;;
33170;SDS011;19535;50.672;4.206;2024-01-27T12:03:33;4.68;;;1.83;;
33170;SDS011;19535;50.672;4.206;2024-01-27T12:06:21;4.50;;;2.00;;
33170;SDS011;19535;50.672;4.206;2024-01-27T12:09:09;3.28;;;1.50;;
33170;SDS011;19535;50.672;4.206;2024-01-27T12:11:58;5.65;;;1.70;;
33170;SDS011;19535;50.672;4.206;2024-01-27T12:14:47;4.30;;;2.13;;
33170;SDS011;19535;50.672;4.206;2024-01-27T12:17:35;3.25;;;1.65;;
33170;SDS011;19535;50.672;4.206;2024-01-27T12:20:22;3.67;;;1.70;;
33170;SDS011;19535;50.672;4.206;2024-01-27T12:23:09;3.45;;;1.75;;
33170;SDS011;19535;50.672;4.206;2024-01-27T12:25:58;3.63;;;1.87;;
33170;SDS011;19535;50.672;4.206;2024-01-27T12:28:46;3.17;;;1.40;;
33170;SDS011;19535;50.672;4.206;2024-01-27T12:31:34;2.65;;;1.65;;
33170;SDS011;19535;50.672;4.206;2024-01-27T12:34:21;2.10;;;1.30;;
33170;SDS011;19535;50.672;4.206;2024-01-27T12:37:10;4.07;;;1.60;;
33170;SDS011;19535;50.672;4.206;2024-01-27T12:39:58;3.38;;;1.60;;
33170;SDS011;19535;50.672;4.206;2024-01-27T12:42:45;3.03;;;1.60;;
33170;SDS011;19535;50.672;4.206;2024-01-27T12:45:33;3.35;;;1.58;;
33170;SDS011;19535;50.672;4.206;2024-01-27T12:48:21;2.55;;;1.67;;
33170;SDS011;19535;50.672;4.206;2024-01-27T12:51:09;3.20;;;1.48;;
33170;SDS011;19535;50.672;4.206;2024-01-27T12:53:56;2.47;;;1.70;;
33170;SDS011;19535;50.672;4.206;2024-01-27T12:56:43;7.18;;;2.13;;
33170;SDS011;19535;50.672;4.206;2024-01-27T12:59:30;4.00;;;1.90;;
33170;SDS011;19535;50.672;4.206;2024-01-27T13:02:18;4.45;;;2.10;;
33170;SDS011;19535;50.672;4.206;2024-01-27T13:05:05;4.60;;;1.95;;
33170;SDS011;19535;50.672;4.206;2024-01-27T13:07:53;3.47;;;1.73;;
33170;SDS011;19535;50.672;4.206;2024-01-27T13:10:40;5.60;;;1.80;;
33170;SDS011;19535;50.672;4.206;2024-01-27T13:13:27;2.70;;;1.40;;
33170;SDS011;19535;50.672;4.206;2024-01-27T13:16:14;3.90;;;1.88;;
33170;SDS011;19535;50.672;4.206;2024-01-27T13:19:01;2.88;;;1.75;;
33170;SDS011;19535;50.672;4.206;2024-01-27T13:21:49;3.70;;;1.70;;
33170;SDS011;19535;50.672;4.206;2024-01-27T13:24:36;2.47;;;1.40;;
33170;SDS011;19535;50.672;4.206;2024-01-27T13:27:23;2.28;;;1.40;;
33170;SDS011;19535;50.672;4.206;2024-01-27T13:30:12;2.92;;;1.70;;
33170;SDS011;19535;50.672;4.206;2024-01-27T13:33:00;6.10;;;1.60;;
33170;SDS011;19535;50.672;4.206;2024-01-27T13:35:47;3.47;;;1.90;;
33170;SDS011;19535;50.672;4.206;2024-01-27T13:38:34;3.70;;;1.73;;
33170;SDS011;19535;50.672;4.206;2024-01-27T13:41:22;3.45;;;1.80;;
33170;SDS011;19535;50.672;4.206;2024-01-27T13:44:09;3.92;;;1.88;;
33170;SDS011;19535;50.672;4.206;2024-01-27T13:46:57;2.33;;;1.50;;
33170;SDS011;19535;50.672;4.206;2024-01-27T13:49:47;2.85;;;1.55;;
33170;SDS011;19535;50.672;4.206;2024-01-27T13:52:34;4.90;;;1.50;;
33170;SDS011;19535;50.672;4.206;2024-01-27T13:55:22;2.60;;;1.60;;
33170;SDS011;19535;50.672;4.206;2024-01-27T13:58:09;2.53;;;1.20;;
33170;SDS011;19535;50.672;4.206;2024-01-27T14:00:56;5.10;;;1.63;;
33170;SDS011;19535;50.672;4.206;2024-01-27T14:03:43;3.65;;;1.55;;
33170;SDS011;19535;50.672;4.206;2024-01-27T14:06:30;4.20;;;1.70;;
33170;SDS011;19535;50.672;4.206;2024-01-27T14:09:18;3.20;;;1.60;;
33170;SDS011;19535;50.672;4.206;2024-01-27T14:12:07;4.70;;;1.35;;
33170;SDS011;19535;50.672;4.206;2024-01-27T14:15:01;2.97;;;1.95;;
33170;SDS011;19535;50.672;4.206;2024-01-27T14:17:55;2.97;;;1.67;;
33170;SDS011;19535;50.672;4.206;2024-01-27T14:20:42;4.30;;;1.60;;
33170;SDS011;19535;50.672;4.206;2024-01-27T14:23:29;5.30;;;1.90;;
33170;SDS011;19535;50.672;4.206;2024-01-27T14:26:18;2.83;;;1.52;;
33170;SDS011;19535;50.672;4.206;2024-01-27T14:29:06;2.08;;;1.42;;
33170;SDS011;19535;50.672;4.206;2024-01-27T14:32:00;2.30;;;1.35;;
33170;SDS011;19535;50.672;4.206;2024-01-27T14:34:47;2.95;;;1.35;;
33170;SDS011;19535;50.672;4.206;2024-01-27T14:37:35;2.83;;;1.38;;
33170;SDS011;19535;50.672;4.206;2024-01-27T14:40:22;2.80;;;1.35;;
33170;SDS011;19535;50.672;4.206;2024-01-27T14:43:11;3.28;;;1.73;;
33170;SDS011;19535;50.672;4.206;2024-01-27T14:45:59;2.88;;;1.52;;
33170;SDS011;19535;50.672;4.206;2024-01-27T14:48:46;3.40;;;1.40;;
33170;SDS011;19535;50.672;4.206;2024-01-27T14:51:34;3.47;;;1.77;;
33170;SDS011;19535;50.672;4.206;2024-01-27T14:54:22;2.55;;;1.27;;
33170;SDS011;19535;50.672;4.206;2024-01-27T14:57:09;3.05;;;1.50;;
33170;SDS011;19535;50.672;4.206;2024-01-27T14:59:57;2.03;;;1.30;;
33170;SDS011;19535;50.672;4.206;2024-01-27T15:02:44;2.63;;;1.50;;
33170;SDS011;19535;50.672;4.206;2024-01-27T15:05:35;2.67;;;1.45;;
33170;SDS011;19535;50.672;4.206;2024-01-27T15:08:27;3.95;;;1.20;;
33170;SDS011;19535;50.672;4.206;2024-01-27T15:11:15;2.97;;;1.42;;
33170;SDS011;19535;50.672;4.206;2024-01-27T15:14:02;3.05;;;1.70;;
33170;SDS011;19535;50.672;4.206;2024-01-27T15:16:49;3.40;;;1.52;;
33170;SDS011;19535;50.672;4.206;2024-01-27T15:19:37;2.90;;;1.75;;
33170;SDS011;19535;50.672;4.206;2024-01-27T15:22:27;3.10;;;1.38;;
33170;SDS011;19535;50.672;4.206;2024-01-27T15:25:14;7.25;;;1.58;;
33170;SDS011;19535;50.672;4.206;2024-01-27T15:28:01;4.65;;;1.60;;
33170;SDS011;19535;50.672;4.206;2024-01-27T15:30:49;3.08;;;1.60;;
33170;SDS011;19535;50.672;4.206;2024-01-27T15:33:36;3.95;;;1.10;;
33170;SDS011;19535;50.672;4.206;2024-01-27T15:36:24;5.43;;;1.73;;
33170;SDS011;19535;50.672;4.206;2024-01-27T15:39:11;2.25;;;1.40;;
33170;SDS011;19535;50.672;4.206;2024-01-27T15:41:58;3.75;;;1.70;;
33170;SDS011;19535;50.672;4.206;2024-01-27T15:44:48;2.78;;;1.42;;
33170;SDS011;19535;50.672;4.206;2024-01-27T15:47:35;3.47;;;1.60;;
33170;SDS011;19535;50.672;4.206;2024-01-27T15:50:23;2.65;;;1.30;;
33170;SDS011;19535;50.672;4.206;2024-01-27T15:53:14;5.10;;;1.67;;
33170;SDS011;19535;50.672;4.206;2024-01-27T15:56:01;3.85;;;1.70;;
33170;SDS011;19535;50.672;4.206;2024-01-27T15:58:48;3.78;;;1.50;;
33170;SDS011;19535;50.672;4.206;2024-01-27T16:01:35;2.55;;;1.50;;
33170;SDS011;19535;50.672;4.206;2024-01-27T16:04:23;4.07;;;1.60;;
33170;SDS011;19535;50.672;4.206;2024-01-27T16:07:10;5.25;;;1.65;;
33170;SDS011;19535;50.672;4.206;2024-01-27T16:09:57;2.30;;;1.38;;
33170;SDS011;19535;50.672;4.206;2024-01-27T16:12:48;2.90;;;1.50;;
33170;SDS011;19535;50.672;4.206;2024-01-27T16:15:35;4.57;;;1.80;;
33170;SDS011;19535;50.672;4.206;2024-01-27T16:18:22;11.07;;;2.20;;
33170;SDS011;19535;50.672;4.206;2024-01-27T16:21:09;3.05;;;1.60;;
33170;SDS011;19535;50.672;4.206;2024-01-27T16:23:56;4.60;;;1.50;;
33170;SDS011;19535;50.672;4.206;2024-01-27T16:26:44;5.15;;;1.80;;
33170;SDS011;19535;50.672;4.206;2024-01-27T16:29:32;1.88;;;1.40;;
33170;SDS011;19535;50.672;4.206;2024-01-27T16:32:19;4.75;;;1.88;;
33170;SDS011;19535;50.672;4.206;2024-01-27T16:35:06;3.70;;;2.00;;
33170;SDS011;19535;50.672;4.206;2024-01-27T16:37:55;5.13;;;1.98;;
33170;SDS011;19535;50.672;4.206;2024-01-27T16:40:42;4.55;;;1.42;;
33170;SDS011;19535;50.672;4.206;2024-01-27T16:43:29;3.60;;;1.70;;
33170;SDS011;19535;50.672;4.206;2024-01-27T16:46:16;2.22;;;1.42;;
33170;SDS011;19535;50.672;4.206;2024-01-27T16:49:03;2.67;;;1.42;;
33170;SDS011;19535;50.672;4.206;2024-01-27T16:51:51;2.88;;;1.60;;
33170;SDS011;19535;50.672;4.206;2024-01-27T16:54:38;2.63;;;1.60;;
33170;SDS011;19535;50.672;4.206;2024-01-27T16:57:27;3.45;;;1.50;;
33170;SDS011;19535;50.672;4.206;2024-01-27T17:00:17;3.30;;;1.58;;
33170;SDS011;19535;50.672;4.206;2024-01-27T17:03:05;4.07;;;1.58;;
33170;SDS011;19535;50.672;4.206;2024-01-27T17:05:53;5.28;;;1.83;;
33170;SDS011;19535;50.672;4.206;2024-01-27T17:08:41;2.38;;;1.65;;
33170;SDS011;19535;50.672;4.206;2024-01-27T17:11:28;3.50;;;1.73;;
33170;SDS011;19535;50.672;4.206;2024-01-27T17:14:15;3.83;;;1.85;;
33170;SDS011;19535;50.672;4.206;2024-01-27T17:17:02;3.83;;;1.60;;
33170;SDS011;19535;50.672;4.206;2024-01-27T17:19:50;2.03;;;1.67;;
33170;SDS011;19535;50.672;4.206;2024-01-27T17:22:38;2.17;;;1.50;;
33170;SDS011;19535;50.672;4.206;2024-01-27T17:25:25;2.83;;;1.95;;
33170;SDS011;19535;50.672;4.206;2024-01-27T17:28:12;3.45;;;1.80;;
33170;SDS011;19535;50.672;4.206;2024-01-27T17:30:59;2.95;;;1.90;;
33170;SDS011;19535;50.672;4.206;2024-01-27T17:33:46;2.50;;;1.83;;
33170;SDS011;19535;50.672;4.206;2024-01-27T17:36:34;2.30;;;1.80;;
33170;SDS011;19535;50.672;4.206;2024-01-27T17:39:21;3.00;;;2.17;;
33170;SDS011;19535;50.672;4.206;2024-01-27T17:42:09;4.35;;;1.83;;
33170;SDS011;19535;50.672;4.206;2024-01-27T17:44:58;2.65;;;1.80;;
33170;SDS011;19535;50.672;4.206;2024-01-27T17:47:45;2.92;;;1.90;;
33170;SDS011;19535;50.672;4.206;2024-01-27T17:50:35;3.78;;;2.60;;
33170;SDS011;19535;50.672;4.206;2024-01-27T17:53:23;3.10;;;2.30;;
33170;SDS011;19535;50.672;4.206;2024-01-27T17:56:10;3.03;;;2.30;;
33170;SDS011;19535;50.672;4.206;2024-01-27T17:59:07;3.13;;;2.58;;
33170;SDS011;19535;50.672;4.206;2024-01-27T18:01:54;5.65;;;2.60;;
33170;SDS011;19535;50.672;4.206;2024-01-27T18:04:41;2.67;;;2.10;;
33170;SDS011;19535;50.672;4.206;2024-01-27T18:07:29;3.10;;;2.58;;
33170;SDS011;19535;50.672;4.206;2024-01-27T18:10:16;5.93;;;2.50;;
33170;SDS011;19535;50.672;4.206;2024-01-27T18:13:03;4.95;;;2.60;;
33170;SDS011;19535;50.672;4.206;2024-01-27T18:15:50;3.53;;;2.50;;
33170;SDS011;19535;50.672;4.206;2024-01-27T18:18:37;7.32;;;2.90;;
33170;SDS011;19535;50.672;4.206;2024-01-27T18:21:24;4.18;;;2.78;;
33170;SDS011;19535;50.672;4.206;2024-01-27T18:24:11;5.80;;;2.90;;
33170;SDS011;19535;50.672;4.206;2024-01-27T18:26:59;3.47;;;2.75;;
33170;SDS011;19535;50.672;4.206;2024-01-27T18:29:46;4.25;;;2.80;;
33170;SDS011;19535;50.672;4.206;2024-01-27T18:32:33;6.05;;;3.53;;
33170;SDS011;19535;50.672;4.206;2024-01-27T18:35:20;4.18;;;3.00;;
33170;SDS011;19535;50.672;4.206;2024-01-27T18:38:08;5.50;;;2.70;;
33170;SDS011;19535;50.672;4.206;2024-01-27T18:40:55;6.32;;;2.90;;
33170;SDS011;19535;50.672;4.206;2024-01-27T18:43:42;6.82;;;3.10;;
33170;SDS011;19535;50.672;4.206;2024-01-27T18:46:29;7.07;;;3.47;;
33170;SDS011;19535;50.672;4.206;2024-01-27T18:49:16;5.47;;;3.15;;
33170;SDS011;19535;50.672;4.206;2024-01-27T18:52:04;4.20;;;2.97;;
33170;SDS011;19535;50.672;4.206;2024-01-27T18:54:52;5.75;;;3.45;;
33170;SDS011;19535;50.672;4.206;2024-01-27T18:57:39;4.38;;;3.03;;